• Join FlightAware (Why Join?)
  • Login
  • US Flag 
12:20PM EDT


 

Airport Tracker/Info


-or-


 

Live Flight TrackerFlight Track Log ✈ UAL4234 ✈ 08-Apr-2013 ✈ KCLT - KIAH

Flight Track Log - Related Links

Times and Time Zones

All times are in EDT time to prevent confusion due to time zone crossing. See the UAL4234 flight status page for this flight to view local times or setup timezone preferences in your user account.

Time Position Orientation Groundspeed Altitude Reporting Facility
EDT Latitude Longitude Course Direction KTS MPH feet Rate Location/Type
10:29AM 35.1911 -80.9503 192° South 173 199 1,800  Level FAA TRACON SMA TRACON (SMA)
10:29AM 35.1758 -80.9489 176° South 178 205 2,700 1,680 Climbing FAA TRACON SMA TRACON (SMA)
10:30AM 35.1586 -80.9522 189° South 221 254 2,900 1,200 Climbing FAA TRACON SMA TRACON (SMA)
10:30AM 35.1472 -80.9769 241° Southwest 231 266 3,500 2,100 Climbing FAA TRACON SMA TRACON (SMA)
10:30AM 35.1428 -81.0014 257° West 240 276 4,300 2,280 Climbing FAA TRACON SMA TRACON (SMA)
10:31AM 35.1381 -81.0258 257° West 242 278 5,000 2,400 Climbing FAA TRACON SMA TRACON (SMA)
10:31AM 35.1319 -81.0581 257° West 248 285 5,900 2,580 Climbing FAA TRACON SMA TRACON (SMA)
10:31AM 35.1269 -81.0842 257° West 253 291 6,800 2,460 Climbing FAA TRACON SMA TRACON (SMA)
10:32AM 35.2667 -81.1653 270° West  Level FlightAware Approximate
10:32AM 35.1219 -81.1100 257° West 253 291 7,500  Level FAA TRACON SMA TRACON (SMA)
10:32AM 35.1153 -81.1433 256° West 262 302 8,300 2,700 Climbing FAA TRACON SMA TRACON (SMA)
10:32AM 35.1103 -81.1708 257° West 265 305 9,300 2,700 Climbing FAA TRACON SMA TRACON (SMA)
10:33AM 35.2111 -81.2405 199° South  Level FlightAware Approximate
10:33AM 35.1047 -81.1981 256° West 265 305 10,100  Level FAA TRACON SMA TRACON (SMA)
10:33AM 35.0997 -81.2247 257° West 264 304 10,700 1,680 Climbing FAA TRACON SMA TRACON (SMA)
10:33AM 35.0928 -81.2589 256° West 268 308 11,200 1,200 Climbing FAA TRACON SMA TRACON (SMA)
10:34AM 35.1145 -81.2755 192° South  Level FlightAware Approximate
10:34AM 35.0869 -81.2886 257° West 283 326 11,500  Level FAA TRACON SMA TRACON (SMA)
10:34AM 35.0783 -81.3200 251° West 313 360 11,800 1,020 Climbing FAA TRACON SMA TRACON (SMA)
10:34AM 35.0667 -81.3589 250° West 325 374 12,200 1,020 Climbing FAA TRACON SMA TRACON (SMA)
10:35AM 35.0583 -81.3881 251° West 331 381 12,500 1,380 Climbing FAA TRACON SMA TRACON (SMA)
10:35AM 35.0475 -81.4236 250° West 329 379 13,100 1,800 Climbing FAA TRACON SMA TRACON (SMA)
10:35AM 35.0350 -81.4639 249° West 329 379 13,700 1,620 Climbing FAA TRACON SMA TRACON (SMA)
10:36AM 35.0256 -81.4964 250° West 330 380 14,200 1,620 Climbing FAA TRACON SMA TRACON (SMA)
10:36AM 35.0158 -81.5289 250° West 330 380 14,800 1,620 Climbing FAA TRACON SMA TRACON (SMA)
10:36AM 35.0047 -81.5678 251° West 329 379 15,300 1,320 Climbing FAA TRACON SMA TRACON (SMA)
10:37AM 34.9936 -81.6011 248° West 329 379 15,700 1,020 Climbing FAA TRACON SMA TRACON (SMA)
10:37AM 34.9836 -81.6336 249° West 331 381 16,000 1,200 Climbing FAA TRACON SMA TRACON (SMA)
10:37AM 34.9711 -81.6747 250° West 335 386 16,500 1,200 Climbing FAA TRACON SMA TRACON (SMA)
10:38AM 34.9614 -81.7081 250° West 336 387 16,800 1,020 Climbing FAA TRACON SMA TRACON (SMA)
10:38AM 34.9506 -81.7414 248° West 339 390 17,200 1,020 Climbing FAA TRACON SMA TRACON (SMA)
10:38AM 34.9372 -81.7836 249° West 345 397 17,500 840 Climbing FAA TRACON SMA TRACON (SMA)
10:39AM 34.9256 -81.8172 247° West 348 400 17,800 600 Climbing FAA TRACON SMA TRACON (SMA)
10:39AM 34.9078 -81.8478 235° Southwest 357 411 17,900 720 Climbing FAA TRACON SMA TRACON (SMA)
10:39AM 34.8864 -81.8861 236° Southwest 360 414 18,300 1,020 Climbing FAA TRACON SMA TRACON (SMA)
10:40AM 34.8686 -81.9164 234° Southwest 360 414 18,600 720 Climbing FAA TRACON SMA TRACON (SMA)
10:40AM 34.8511 -81.9472 235° Southwest 360 414 18,800 840 Climbing FAA TRACON SMA TRACON (SMA)
10:40AM 34.8297 -81.9867 237° Southwest 361 415 19,200 600 Climbing FAA TRACON SMA TRACON (SMA)
10:41AM 34.8297 -81.9867 51° Northeast 361 415 19,200 840 Level FAA TRACON SMA TRACON (SMA)
10:41AM 34.7886 -82.0633 237° Southwest 369 425 19,900 1,020 Climbing Atlanta Center
10:42AM 34.7275 -82.1661 234° Southwest 374 430 20,800 900 Climbing Atlanta Center
10:43AM 34.6686 -82.2708 236° Southwest 379 436 21,800 900 Climbing Atlanta Center
10:44AM 34.6075 -82.3781 235° Southwest 379 436 22,700 840 Climbing Atlanta Center
10:45AM 34.5461 -82.4828 235° Southwest 379 436 23,600 960 Climbing Atlanta Center
10:46AM 34.4767 -82.6025 235° Southwest 385 443 24,700 960 Climbing Atlanta Center
10:47AM 34.4111 -82.7094 233° Southwest 393 452 25,600 900 Climbing Atlanta Center
10:48AM 34.3558 -82.8183 238° Southwest 388 447 26,600 900 Climbing Atlanta Center
10:49AM 34.2922 -82.9175 232° Southwest 382 440 27,500 900 Climbing Atlanta Center
10:50AM 34.2325 -83.0211 235° Southwest 382 440 28,500 900 Climbing Atlanta Center
10:51AM 34.1708 -83.1275 235° Southwest 387 445 29,400 840 Climbing Atlanta Center
10:52AM 34.1214 -83.2183 237° Southwest 377 434 30,200 840 Climbing Atlanta Center
10:53AM 34.0572 -83.3217 233° Southwest 377 434 31,100 900 Climbing Atlanta Center
10:54AM 33.9972 -83.4250 235° Southwest 377 434 32,100 960 Climbing Atlanta Center
10:55AM 33.9350 -83.5306 235° Southwest 382 440 33,100 900 Climbing Atlanta Center
10:56AM 33.8728 -83.6336 234° Southwest 382 440 34,000 840 Climbing Atlanta Center
10:57AM 33.8044 -83.7539 236° Southwest 391 450 34,900 480 Climbing Atlanta Center
10:58AM 33.7397 -83.8589 233° Southwest 391 450 35,000  Climbing Atlanta Center
10:59AM 33.6731 -83.9714 235° Southwest 401 461 35,000  Level Atlanta Center
11:00AM 33.6042 -84.0836 234° Southwest 412 474 35,000  Level Atlanta Center
11:01AM 33.5394 -84.1933 235° Southwest 412 474 35,100 480 Climbing Atlanta Center
11:02AM 33.4725 -84.3028 234° Southwest 412 474 36,000 420 Climbing Atlanta Center
11:03AM 33.4139 -84.3997 234° Southwest 407 468 36,000  Level Atlanta Center
11:04AM 33.3467 -84.5139 235° Southwest 407 468 36,000  Level Atlanta Center
11:05AM 33.2814 -84.6253 235° Southwest 412 474 36,000  Level Atlanta Center
11:06AM 33.2142 -84.7342 234° Southwest 407 468 36,000  Level Atlanta Center
11:07AM 33.1489 -84.8403 234° Southwest 401 461 36,000  Level Atlanta Center
11:08AM 33.0769 -84.9561 233° Southwest 407 468 36,000  Level Atlanta Center
11:09AM 33.0094 -85.0644 233° Southwest 407 468 36,000  Level Atlanta Center
11:10AM 32.9458 -85.1650 233° Southwest 400 460 36,000  Level Atlanta Center
11:11AM 32.8800 -85.2756 235° Southwest 400 460 36,000  Level Atlanta Center
11:12AM 32.8122 -85.3808 233° Southwest 400 460 36,000  Level Atlanta Center
11:13AM 32.7464 -85.4861 233° Southwest 406 467 36,000  Level Atlanta Center
11:14AM 32.6822 -85.5961 235° Southwest 406 467 36,000  Level Atlanta Center
11:15AM 32.6142 -85.7008 232° Southwest 406 467 36,000  Level Atlanta Center
11:16AM 32.5481 -85.8081 234° Southwest 406 467 36,000  Level Atlanta Center
11:17AM 32.4797 -85.9078 231° Southwest 420 483 36,000  Level Atlanta Center
11:18AM 32.4114 -86.0144 233° Southwest 420 483 36,000  Level Atlanta Center
11:19AM 32.3469 -86.1189 234° Southwest 412 474 36,000  Level Atlanta Center
11:20AM 32.2803 -86.2253 233° Southwest 412 474 36,000  Level Atlanta Center
11:21AM 32.2136 -86.3367 235° Southwest 407 468 36,000  Level Atlanta Center
11:22AM 32.1428 -86.4475 233° Southwest 400 460 36,000  Level Atlanta Center
11:23AM 32.0656 -86.5486 228° Southwest 405 466 36,000  Level Atlanta Center
11:24AM 31.9925 -86.6517 230° Southwest 411 473 36,000  Level Atlanta Center
11:26AM 31.8447 -86.8550 229° Southwest 410 472 36,000  Level Houston Center
11:27AM 31.7706 -86.9567 229° Southwest 408 470 36,000  Level Houston Center
11:28AM 31.6769 -87.0736 227° Southwest 408 470 36,000  Level Houston Center
11:29AM 31.6022 -87.1744 229° Southwest 409 471 36,000  Level Houston Center
11:30AM 31.5289 -87.2769 230° Southwest 409 471 36,000  Level Houston Center
11:32AM 31.4544 -87.3778 229° Southwest 409 471 36,000  Level Houston Center
11:33AM 31.3808 -87.4794 230° Southwest 409 471 36,000  Level Houston Center
11:34AM 31.3078 -87.5792 229° Southwest 404 465 36,000  Level Houston Center
11:35AM 31.2217 -87.6942 229° Southwest 391 450 36,000  Level Houston Center
11:36AM 31.1606 -87.7758 229° Southwest 387 445 36,000  Level Houston Center
11:37AM 31.0775 -87.8889 229° Southwest 383 441 36,000  Level Houston Center
11:38AM 31.0075 -87.9822 229° Southwest 382 440 36,000  Level Houston Center
11:39AM 30.9358 -88.0761 228° Southwest 386 444 36,000  Level Houston Center
11:40AM 30.8642 -88.1708 229° Southwest 390 449 36,000  Level Houston Center
11:41AM 30.7939 -88.2656 229° Southwest 388 447 36,000  Level Houston Center
11:42AM 30.7258 -88.3617 231° Southwest 386 444 36,000  Level Houston Center
11:43AM 30.6822 -88.5033 250° West 380 437 36,000  Level Houston Center
11:44AM 30.6472 -88.6228 251° West 386 444 36,000  Level Houston Center
11:45AM 30.6119 -88.7406 251° West 386 444 36,000  Level Houston Center
11:46AM 30.5775 -88.8603 252° West 390 449 36,000  Level Houston Center
11:47AM 30.5436 -88.9761 251° West 389 448 36,000  Level Houston Center
11:48AM 30.5011 -89.1178 251° West 388 447 36,000  Level Houston Center
11:49AM 30.4658 -89.2369 251° West 389 448 36,000  Level Houston Center
11:50AM 30.4322 -89.3556 252° West 387 445 36,000  Level Houston Center
11:51AM 30.3956 -89.4750 250° West 392 451 36,000  Level Houston Center
11:52AM 30.3603 -89.5939 251° West 390 449 36,000  Level Houston Center
11:53AM 30.3206 -89.7167 249° West 395 455 36,000  Level Houston Center
11:54AM 30.2839 -89.8358 250° West 396 456 36,000  Level Houston Center
11:55AM 30.2469 -89.9644 252° West 396 456 36,000  Level Houston Center
11:56AM 30.2100 -90.0850 251° West 397 457 36,000  Level Houston Center
11:57AM 30.1653 -90.2294 250° West 399 459 36,000  Level Houston Center
11:58AM 30.1286 -90.3489 250° West 397 457 36,000  Level Houston Center
11:59AM 30.0919 -90.4686 251° West 395 455 36,000  Level Houston Center
12:01PM 30.0544 -90.5881 250° West 397 457 36,000  Level Houston Center
12:02PM 30.0158 -90.7081 250° West 399 459 36,000  Level Houston Center
12:03PM 29.9703 -90.8528 250° West 401 461 36,000  Level Houston Center
12:04PM 29.9339 -90.9739 251° West 401 461 36,000  Level Houston Center
12:05PM 29.8961 -91.0950 250° West 403 464 36,000  Level Houston Center
12:06PM 29.8569 -91.2161 250° West 404 465 36,000  Level Houston Center
12:07PM 29.8181 -91.3378 250° West 403 464 36,000  Level Houston Center
12:08PM 29.7794 -91.4592 250° West 404 465 36,000  Level Houston Center
12:09PM 29.7333 -91.6036 250° West 403 464 36,000  Level Houston Center
12:10PM 29.6944 -91.7247 250° West 404 465 36,000  Level Houston Center
12:11PM 29.6517 -91.8539 249° West 405 466 36,000  Level Houston Center
12:12PM 29.6131 -91.9747 250° West 403 464 36,000  Level Houston Center
12:13PM 29.5744 -92.0964 250° West 405 466 36,000  Level Houston Center
12:14PM 29.5350 -92.2161 249° West 404 465 36,000  Level Houston Center
12:15PM 29.4967 -92.3353 250° West 399 459 36,000  Level Houston Center
12:16PM 29.4586 -92.4544 250° West 397 457 36,000  Level Houston Center
12:17PM 29.4631 -92.6050 272° West 395 455 36,000  Level Houston Center
12:18PM 29.4697 -92.7308 274° West 395 455 36,000  Level Houston Center
12:19PM 29.4750 -92.8569 273° West 397 457 36,000  Level Houston Center
12:20PM 29.4806 -92.9833 273° West 396 456 36,000  Level Houston Center
12:21PM 29.4858 -93.1106 273° West 397 457 36,000 -1,020 Level Houston Center
12:22PM 29.4908 -93.2389 273° West 402 463 33,900 -3,060 Descending Houston Center
12:23PM 29.4975 -93.3922 273° West 397 457 29,700 -3,720 Descending Houston Center
12:24PM 29.5025 -93.5256 272° West 415 478 26,300 -2,760 Descending Houston Center
12:25PM 29.5072 -93.6622 272° West 424 488 24,100 -2,220 Descending Houston Center
12:26PM 29.5128 -93.7986 273° West 428 493 21,800 -2,220 Descending Houston Center
12:27PM 29.5175 -93.9308 272° West 419 482 19,600 -2,280 Descending Houston Center
12:28PM 29.5225 -94.0539 273° West 399 459 17,200 -2,580 Descending Houston Center
12:29PM 29.5256 -94.1108 274° West 380 437 16,200 -2,400 Descending Houston Center
12:30PM 29.5272 -94.1925 271° West 387 445 14,700 -2,340 Descending Houston Center
12:30PM 29.5289 -94.2497 272° West 387 445 13,600 -1,680 Descending Houston Center
12:31PM 29.5314 -94.3133 273° West 382 440 13,000 -600 Descending Houston Center
12:31PM 29.5372 -94.3544 279° West 339 390 13,100 -720 Climbing Houston Center
12:32PM 29.5636 -94.4144 297° West 344 396 12,300 -1,680 Descending Houston Center
12:32PM 29.5792 -94.4572 293° West 340 391 11,400 -1,860 Descending Houston Center
12:33PM 29.6036 -94.5097 298° West 336 387 10,400 -1,380 Descending Houston Center
12:33PM 29.6219 -94.5525 296° West 330 380 10,000 -360 Descending Houston Center
12:34PM 29.6631 -94.6508 296° West 333 383 10,000  Level Houston Center
12:35PM 29.6928 -94.7189 297° West 333 383 10,000  Level Houston Center
12:36PM 29.7331 -94.8139 296° West 332 382 10,100 -120 Climbing Houston Center
12:37PM 29.7725 -94.9072 296° West 329 379 9,800 -1,200 Descending Houston Center
12:38PM 29.8069 -94.9881 296° West 289 333 7,700 -1,800 Descending Houston Center
12:39PM 29.8461 -95.0822 296° West 274 315 6,100 -840 Descending Houston Center
12:40PM 29.8792 -95.1586 297° West 270 311 6,000 -60 Descending Houston Center
12:41PM 29.8975 -95.2622 282° West 263 303 6,000  Level Houston Center
12:42PM 29.8994 -95.3206 272° West 262 302 6,100  Climbing Houston Center
12:43PM 29.9008 -95.4186 271° West 257 296 6,100 -60 Level Houston Center
12:44PM 29.9006 -95.4994 270° West 254 292 6,000 -120 Descending Houston Center
12:45PM 29.9008 -95.5750 270° West 222 255 5,900  Descending Houston Center
12:46PM 29.9011 -95.6497 270° West 218 251 6,000 60 Climbing Houston Center
12:47PM 29.9019 -95.7094 271° West 218 251 6,100 -120 Climbing Houston Center
12:48PM 29.9011 -95.7867 269° West 204 235 5,800 -540 Descending Houston Center
12:49PM 29.9583 -95.8025 347° North 235 270 5,100 -360 Descending Houston Center
12:50PM 29.9931 -95.7525 51° Northeast 215 247 5,100  Level Houston Center
12:51PM 29.9917 -95.6892 91° East 200 230 5,100 -240 Level Houston Center
12:52PM 29.9922 -95.6250 89° East 199 229 4,700 -720 Descending Houston Center
12:53PM 29.9931 -95.5614 89° East 198 228 3,600 -1,080 Descending Houston Center